sensor_id;sensor_type;location;lat;lon;timestamp;P1;durP1;ratioP1;P2;durP2;ratioP2
3185;SDS011;1604;53.700;10.252;2023-12-20T00:00:34;22.43;;;2.90;;
3185;SDS011;1604;53.700;10.252;2023-12-20T00:03:37;25.80;;;4.67;;
3185;SDS011;1604;53.700;10.252;2023-12-20T00:06:39;11.60;;;4.17;;
3185;SDS011;1604;53.700;10.252;2023-12-20T00:09:41;10.80;;;3.60;;
3185;SDS011;1604;53.700;10.252;2023-12-20T00:12:43;12.47;;;3.50;;
3185;SDS011;1604;53.700;10.252;2023-12-20T00:15:45;21.67;;;3.20;;
3185;SDS011;1604;53.700;10.252;2023-12-20T00:18:48;14.63;;;3.40;;
3185;SDS011;1604;53.700;10.252;2023-12-20T00:21:50;24.77;;;3.50;;
3185;SDS011;1604;53.700;10.252;2023-12-20T00:24:52;13.53;;;3.70;;
3185;SDS011;1604;53.700;10.252;2023-12-20T00:27:53;46.27;;;3.67;;
3185;SDS011;1604;53.700;10.252;2023-12-20T00:30:55;22.63;;;3.87;;
3185;SDS011;1604;53.700;10.252;2023-12-20T00:33:59;12.57;;;2.80;;
3185;SDS011;1604;53.700;10.252;2023-12-20T00:37:00;11.60;;;3.17;;
3185;SDS011;1604;53.700;10.252;2023-12-20T00:40:03;16.70;;;3.23;;
3185;SDS011;1604;53.700;10.252;2023-12-20T00:43:05;17.10;;;2.60;;
3185;SDS011;1604;53.700;10.252;2023-12-20T00:46:07;20.10;;;4.10;;
3185;SDS011;1604;53.700;10.252;2023-12-20T00:49:10;10.63;;;2.83;;
3185;SDS011;1604;53.700;10.252;2023-12-20T00:52:12;11.30;;;1.90;;
3185;SDS011;1604;53.700;10.252;2023-12-20T00:55:14;17.43;;;3.50;;
3185;SDS011;1604;53.700;10.252;2023-12-20T00:58:16;12.03;;;2.33;;
3185;SDS011;1604;53.700;10.252;2023-12-20T01:01:18;20.97;;;2.50;;
3185;SDS011;1604;53.700;10.252;2023-12-20T01:04:21;9.33;;;2.60;;
3185;SDS011;1604;53.700;10.252;2023-12-20T01:07:23;15.87;;;2.50;;
3185;SDS011;1604;53.700;10.252;2023-12-20T01:10:25;21.27;;;2.73;;
3185;SDS011;1604;53.700;10.252;2023-12-20T01:13:28;16.00;;;2.60;;
3185;SDS011;1604;53.700;10.252;2023-12-20T01:16:30;13.37;;;2.37;;
3185;SDS011;1604;53.700;10.252;2023-12-20T01:19:33;11.50;;;2.27;;
3185;SDS011;1604;53.700;10.252;2023-12-20T01:22:35;24.23;;;2.27;;
3185;SDS011;1604;53.700;10.252;2023-12-20T01:25:37;20.53;;;2.30;;
3185;SDS011;1604;53.700;10.252;2023-12-20T01:28:39;16.50;;;3.30;;
3185;SDS011;1604;53.700;10.252;2023-12-20T01:31:40;16.13;;;2.50;;
3185;SDS011;1604;53.700;10.252;2023-12-20T01:34:44;17.60;;;2.57;;
3185;SDS011;1604;53.700;10.252;2023-12-20T01:37:46;18.07;;;3.33;;
3185;SDS011;1604;53.700;10.252;2023-12-20T01:40:47;15.17;;;2.40;;
3185;SDS011;1604;53.700;10.252;2023-12-20T01:43:49;15.93;;;3.13;;
3185;SDS011;1604;53.700;10.252;2023-12-20T01:46:53;16.50;;;2.80;;
3185;SDS011;1604;53.700;10.252;2023-12-20T01:49:56;14.93;;;3.00;;
3185;SDS011;1604;53.700;10.252;2023-12-20T01:52:58;20.50;;;2.70;;
3185;SDS011;1604;53.700;10.252;2023-12-20T01:56:02;11.73;;;2.53;;
3185;SDS011;1604;53.700;10.252;2023-12-20T01:59:05;20.53;;;2.67;;
3185;SDS011;1604;53.700;10.252;2023-12-20T02:02:09;11.13;;;2.53;;
3185;SDS011;1604;53.700;10.252;2023-12-20T02:05:13;14.27;;;2.60;;
3185;SDS011;1604;53.700;10.252;2023-12-20T02:08:16;28.10;;;3.03;;
3185;SDS011;1604;53.700;10.252;2023-12-20T02:11:17;13.80;;;2.70;;
3185;SDS011;1604;53.700;10.252;2023-12-20T02:14:19;20.67;;;2.27;;
3185;SDS011;1604;53.700;10.252;2023-12-20T02:17:21;8.27;;;2.70;;
3185;SDS011;1604;53.700;10.252;2023-12-20T02:20:25;14.40;;;2.47;;
3185;SDS011;1604;53.700;10.252;2023-12-20T02:23:29;26.77;;;3.50;;
3185;SDS011;1604;53.700;10.252;2023-12-20T02:26:31;18.83;;;3.43;;
3185;SDS011;1604;53.700;10.252;2023-12-20T02:29:34;16.33;;;2.37;;
3185;SDS011;1604;53.700;10.252;2023-12-20T02:32:37;8.50;;;1.93;;
3185;SDS011;1604;53.700;10.252;2023-12-20T02:35:39;11.63;;;1.80;;
3185;SDS011;1604;53.700;10.252;2023-12-20T02:38:42;17.43;;;2.70;;
3185;SDS011;1604;53.700;10.252;2023-12-20T02:41:44;21.67;;;3.50;;
3185;SDS011;1604;53.700;10.252;2023-12-20T02:44:46;17.57;;;3.87;;
3185;SDS011;1604;53.700;10.252;2023-12-20T02:47:47;12.73;;;3.27;;
3185;SDS011;1604;53.700;10.252;2023-12-20T02:50:49;15.00;;;3.70;;
3185;SDS011;1604;53.700;10.252;2023-12-20T02:53:53;12.07;;;2.77;;
3185;SDS011;1604;53.700;10.252;2023-12-20T02:56:55;17.33;;;2.83;;
3185;SDS011;1604;53.700;10.252;2023-12-20T02:59:57;10.83;;;2.43;;
3185;SDS011;1604;53.700;10.252;2023-12-20T03:03:02;6.50;;;2.60;;
3185;SDS011;1604;53.700;10.252;2023-12-20T03:06:05;10.13;;;3.20;;
3185;SDS011;1604;53.700;10.252;2023-12-20T03:09:08;12.80;;;2.30;;
3185;SDS011;1604;53.700;10.252;2023-12-20T03:12:10;13.50;;;3.80;;
3185;SDS011;1604;53.700;10.252;2023-12-20T03:15:12;12.67;;;2.30;;
3185;SDS011;1604;53.700;10.252;2023-12-20T03:18:14;9.07;;;1.90;;
3185;SDS011;1604;53.700;10.252;2023-12-20T03:21:17;13.27;;;3.40;;
3185;SDS011;1604;53.700;10.252;2023-12-20T03:24:20;10.37;;;2.13;;
3185;SDS011;1604;53.700;10.252;2023-12-20T03:27:22;9.13;;;2.10;;
3185;SDS011;1604;53.700;10.252;2023-12-20T03:30:24;17.33;;;4.70;;
3185;SDS011;1604;53.700;10.252;2023-12-20T03:33:26;19.30;;;3.60;;
3185;SDS011;1604;53.700;10.252;2023-12-20T03:36:28;30.37;;;3.70;;
3185;SDS011;1604;53.700;10.252;2023-12-20T03:39:31;17.10;;;3.70;;
3185;SDS011;1604;53.700;10.252;2023-12-20T03:42:35;14.07;;;3.27;;
3185;SDS011;1604;53.700;10.252;2023-12-20T03:45:37;27.40;;;4.90;;
3185;SDS011;1604;53.700;10.252;2023-12-20T03:48:39;11.73;;;3.17;;
3185;SDS011;1604;53.700;10.252;2023-12-20T03:51:41;13.63;;;4.00;;
3185;SDS011;1604;53.700;10.252;2023-12-20T03:54:44;10.73;;;2.93;;
3185;SDS011;1604;53.700;10.252;2023-12-20T03:57:46;7.00;;;2.20;;
3185;SDS011;1604;53.700;10.252;2023-12-20T04:00:48;16.40;;;2.53;;
3185;SDS011;1604;53.700;10.252;2023-12-20T04:03:50;13.63;;;2.70;;
3185;SDS011;1604;53.700;10.252;2023-12-20T04:06:52;11.70;;;3.10;;
3185;SDS011;1604;53.700;10.252;2023-12-20T04:09:55;16.63;;;2.80;;
3185;SDS011;1604;53.700;10.252;2023-12-20T04:12:57;8.33;;;2.37;;
3185;SDS011;1604;53.700;10.252;2023-12-20T04:15:59;7.50;;;2.50;;
3185;SDS011;1604;53.700;10.252;2023-12-20T04:19:01;15.40;;;3.87;;
3185;SDS011;1604;53.700;10.252;2023-12-20T04:22:03;14.63;;;2.83;;
3185;SDS011;1604;53.700;10.252;2023-12-20T04:25:07;5.60;;;2.13;;
3185;SDS011;1604;53.700;10.252;2023-12-20T04:28:09;10.33;;;2.67;;
3185;SDS011;1604;53.700;10.252;2023-12-20T04:31:11;8.80;;;1.80;;
3185;SDS011;1604;53.700;10.252;2023-12-20T04:34:13;23.33;;;3.27;;
3185;SDS011;1604;53.700;10.252;2023-12-20T04:37:15;15.80;;;2.70;;
3185;SDS011;1604;53.700;10.252;2023-12-20T04:40:18;10.80;;;2.63;;
3185;SDS011;1604;53.700;10.252;2023-12-20T04:43:20;10.23;;;2.57;;
3185;SDS011;1604;53.700;10.252;2023-12-20T04:46:22;10.63;;;2.63;;
3185;SDS011;1604;53.700;10.252;2023-12-20T04:49:24;12.90;;;2.37;;
3185;SDS011;1604;53.700;10.252;2023-12-20T04:52:26;12.87;;;3.10;;
3185;SDS011;1604;53.700;10.252;2023-12-20T04:55:29;13.03;;;2.97;;
3185;SDS011;1604;53.700;10.252;2023-12-20T04:58:31;11.70;;;2.93;;
3185;SDS011;1604;53.700;10.252;2023-12-20T05:01:33;13.07;;;3.70;;
3185;SDS011;1604;53.700;10.252;2023-12-20T05:04:35;7.13;;;3.03;;
3185;SDS011;1604;53.700;10.252;2023-12-20T05:07:37;22.50;;;3.97;;
3185;SDS011;1604;53.700;10.252;2023-12-20T05:10:40;20.60;;;3.90;;
3185;SDS011;1604;53.700;10.252;2023-12-20T05:13:42;25.03;;;2.47;;
3185;SDS011;1604;53.700;10.252;2023-12-20T05:16:44;15.90;;;3.33;;
3185;SDS011;1604;53.700;10.252;2023-12-20T05:19:46;12.03;;;2.27;;
3185;SDS011;1604;53.700;10.252;2023-12-20T05:22:48;18.37;;;3.40;;
3185;SDS011;1604;53.700;10.252;2023-12-20T05:25:51;12.50;;;2.03;;
3185;SDS011;1604;53.700;10.252;2023-12-20T05:28:53;7.30;;;2.40;;
3185;SDS011;1604;53.700;10.252;2023-12-20T05:31:55;16.23;;;3.87;;
3185;SDS011;1604;53.700;10.252;2023-12-20T05:34:59;10.00;;;2.93;;
3185;SDS011;1604;53.700;10.252;2023-12-20T05:38:01;19.77;;;3.43;;
3185;SDS011;1604;53.700;10.252;2023-12-20T05:41:04;16.80;;;3.30;;
3185;SDS011;1604;53.700;10.252;2023-12-20T05:44:06;21.60;;;3.27;;
3185;SDS011;1604;53.700;10.252;2023-12-20T05:47:08;9.37;;;3.03;;
3185;SDS011;1604;53.700;10.252;2023-12-20T05:50:10;14.40;;;2.73;;
3185;SDS011;1604;53.700;10.252;2023-12-20T05:53:12;10.07;;;2.00;;
3185;SDS011;1604;53.700;10.252;2023-12-20T05:56:15;13.97;;;3.80;;
3185;SDS011;1604;53.700;10.252;2023-12-20T05:59:17;32.17;;;5.63;;
3185;SDS011;1604;53.700;10.252;2023-12-20T06:02:19;22.27;;;3.50;;
3185;SDS011;1604;53.700;10.252;2023-12-20T06:05:21;9.43;;;3.70;;
3185;SDS011;1604;53.700;10.252;2023-12-20T06:08:23;20.53;;;3.30;;
3185;SDS011;1604;53.700;10.252;2023-12-20T06:11:27;14.37;;;3.20;;
3185;SDS011;1604;53.700;10.252;2023-12-20T06:14:28;6.50;;;2.40;;
3185;SDS011;1604;53.700;10.252;2023-12-20T06:17:31;16.00;;;3.10;;
3185;SDS011;1604;53.700;10.252;2023-12-20T06:20:33;17.00;;;3.17;;
3185;SDS011;1604;53.700;10.252;2023-12-20T06:23:34;17.33;;;1.80;;
3185;SDS011;1604;53.700;10.252;2023-12-20T06:26:38;6.70;;;2.10;;
3185;SDS011;1604;53.700;10.252;2023-12-20T06:29:40;16.97;;;2.03;;
3185;SDS011;1604;53.700;10.252;2023-12-20T06:32:44;7.90;;;2.50;;
3185;SDS011;1604;53.700;10.252;2023-12-20T06:35:47;10.53;;;3.73;;
3185;SDS011;1604;53.700;10.252;2023-12-20T06:38:49;6.60;;;2.37;;
3185;SDS011;1604;53.700;10.252;2023-12-20T06:41:52;18.73;;;2.70;;
3185;SDS011;1604;53.700;10.252;2023-12-20T06:44:54;18.23;;;3.03;;
3185;SDS011;1604;53.700;10.252;2023-12-20T06:47:56;12.50;;;3.00;;
3185;SDS011;1604;53.700;10.252;2023-12-20T06:50:59;14.53;;;3.23;;
3185;SDS011;1604;53.700;10.252;2023-12-20T06:54:02;8.17;;;2.50;;
3185;SDS011;1604;53.700;10.252;2023-12-20T06:57:05;24.97;;;4.20;;
3185;SDS011;1604;53.700;10.252;2023-12-20T07:00:08;18.80;;;3.80;;
3185;SDS011;1604;53.700;10.252;2023-12-20T07:03:12;28.50;;;3.73;;
3185;SDS011;1604;53.700;10.252;2023-12-20T07:06:14;18.67;;;3.67;;
3185;SDS011;1604;53.700;10.252;2023-12-20T07:09:17;41.37;;;5.23;;
3185;SDS011;1604;53.700;10.252;2023-12-20T07:12:20;12.63;;;3.13;;
3185;SDS011;1604;53.700;10.252;2023-12-20T07:15:22;11.67;;;3.17;;
3185;SDS011;1604;53.700;10.252;2023-12-20T07:18:24;12.20;;;3.83;;
3185;SDS011;1604;53.700;10.252;2023-12-20T07:21:26;18.00;;;3.70;;
3185;SDS011;1604;53.700;10.252;2023-12-20T07:24:28;16.23;;;2.80;;
3185;SDS011;1604;53.700;10.252;2023-12-20T07:27:31;26.10;;;3.30;;
3185;SDS011;1604;53.700;10.252;2023-12-20T07:30:33;19.83;;;4.50;;
3185;SDS011;1604;53.700;10.252;2023-12-20T07:33:35;13.70;;;2.83;;
3185;SDS011;1604;53.700;10.252;2023-12-20T07:36:37;25.07;;;4.60;;
3185;SDS011;1604;53.700;10.252;2023-12-20T07:39:39;17.33;;;3.67;;
3185;SDS011;1604;53.700;10.252;2023-12-20T07:42:42;13.77;;;4.70;;
3185;SDS011;1604;53.700;10.252;2023-12-20T07:45:44;16.43;;;3.40;;
3185;SDS011;1604;53.700;10.252;2023-12-20T07:48:46;21.00;;;6.50;;
3185;SDS011;1604;53.700;10.252;2023-12-20T07:51:48;11.10;;;3.37;;
3185;SDS011;1604;53.700;10.252;2023-12-20T07:54:50;10.67;;;3.10;;
3185;SDS011;1604;53.700;10.252;2023-12-20T07:57:53;25.70;;;5.43;;
3185;SDS011;1604;53.700;10.252;2023-12-20T08:00:55;19.87;;;3.60;;
3185;SDS011;1604;53.700;10.252;2023-12-20T08:03:57;13.77;;;2.53;;
3185;SDS011;1604;53.700;10.252;2023-12-20T08:06:59;13.70;;;3.60;;
3185;SDS011;1604;53.700;10.252;2023-12-20T08:10:01;30.83;;;3.80;;
3185;SDS011;1604;53.700;10.252;2023-12-20T08:13:05;21.53;;;4.50;;
3185;SDS011;1604;53.700;10.252;2023-12-20T08:16:06;16.57;;;5.13;;
3185;SDS011;1604;53.700;10.252;2023-12-20T08:19:09;18.30;;;4.03;;
3185;SDS011;1604;53.700;10.252;2023-12-20T08:22:11;10.10;;;3.17;;
3185;SDS011;1604;53.700;10.252;2023-12-20T08:25:13;22.07;;;4.53;;
3185;SDS011;1604;53.700;10.252;2023-12-20T08:28:17;23.63;;;4.20;;
3185;SDS011;1604;53.700;10.252;2023-12-20T08:31:19;12.60;;;2.97;;
3185;SDS011;1604;53.700;10.252;2023-12-20T08:34:21;19.33;;;3.10;;
3185;SDS011;1604;53.700;10.252;2023-12-20T08:37:23;15.70;;;4.40;;
3185;SDS011;1604;53.700;10.252;2023-12-20T08:40:25;28.07;;;3.50;;
3185;SDS011;1604;53.700;10.252;2023-12-20T08:43:29;16.13;;;2.90;;
3185;SDS011;1604;53.700;10.252;2023-12-20T08:46:30;25.40;;;5.47;;
3185;SDS011;1604;53.700;10.252;2023-12-20T08:49:32;26.90;;;3.93;;
3185;SDS011;1604;53.700;10.252;2023-12-20T08:52:34;14.00;;;4.10;;
3185;SDS011;1604;53.700;10.252;2023-12-20T08:55:36;17.73;;;4.57;;
3185;SDS011;1604;53.700;10.252;2023-12-20T08:58:40;18.53;;;4.17;;
3185;SDS011;1604;53.700;10.252;2023-12-20T09:01:42;23.73;;;3.90;;
3185;SDS011;1604;53.700;10.252;2023-12-20T09:04:43;20.93;;;3.97;;
3185;SDS011;1604;53.700;10.252;2023-12-20T09:07:45;13.70;;;2.87;;
3185;SDS011;1604;53.700;10.252;2023-12-20T09:10:47;8.80;;;3.70;;
3185;SDS011;1604;53.700;10.252;2023-12-20T09:13:51;13.77;;;3.07;;
3185;SDS011;1604;53.700;10.252;2023-12-20T09:16:52;10.03;;;2.43;;
3185;SDS011;1604;53.700;10.252;2023-12-20T09:19:56;10.60;;;2.47;;
3185;SDS011;1604;53.700;10.252;2023-12-20T09:22:59;15.73;;;3.00;;
3185;SDS011;1604;53.700;10.252;2023-12-20T09:26:01;4.43;;;2.03;;
3185;SDS011;1604;53.700;10.252;2023-12-20T09:29:05;4.77;;;1.40;;
3185;SDS011;1604;53.700;10.252;2023-12-20T09:32:07;4.40;;;2.13;;
3185;SDS011;1604;53.700;10.252;2023-12-20T09:35:09;6.00;;;2.40;;
3185;SDS011;1604;53.700;10.252;2023-12-20T09:38:11;3.80;;;1.40;;
3185;SDS011;1604;53.700;10.252;2023-12-20T09:41:16;5.70;;;1.40;;
3185;SDS011;1604;53.700;10.252;2023-12-20T09:44:19;3.40;;;0.63;;
3185;SDS011;1604;53.700;10.252;2023-12-20T09:47:21;2.00;;;0.93;;
3185;SDS011;1604;53.700;10.252;2023-12-20T09:50:25;5.50;;;1.20;;
3185;SDS011;1604;53.700;10.252;2023-12-20T09:53:27;5.87;;;1.20;;
3185;SDS011;1604;53.700;10.252;2023-12-20T09:56:31;3.93;;;0.60;;
3185;SDS011;1604;53.700;10.252;2023-12-20T09:59:35;2.70;;;1.63;;
3185;SDS011;1604;53.700;10.252;2023-12-20T10:02:37;2.00;;;0.60;;
3185;SDS011;1604;53.700;10.252;2023-12-20T10:05:42;2.27;;;0.63;;
3185;SDS011;1604;53.700;10.252;2023-12-20T10:08:45;11.63;;;0.70;;
3185;SDS011;1604;53.700;10.252;2023-12-20T10:11:47;1.50;;;0.60;;
3185;SDS011;1604;53.700;10.252;2023-12-20T10:14:50;1.80;;;0.80;;
3185;SDS011;1604;53.700;10.252;2023-12-20T10:17:52;1.93;;;0.60;;
3185;SDS011;1604;53.700;10.252;2023-12-20T10:20:55;2.00;;;0.63;;
3185;SDS011;1604;53.700;10.252;2023-12-20T10:23:57;8.87;;;1.37;;
3185;SDS011;1604;53.700;10.252;2023-12-20T10:27:02;7.03;;;0.87;;
3185;SDS011;1604;53.700;10.252;2023-12-20T10:30:07;1.60;;;0.80;;
3185;SDS011;1604;53.700;10.252;2023-12-20T10:33:10;10.07;;;1.23;;
3185;SDS011;1604;53.700;10.252;2023-12-20T10:36:12;4.77;;;1.63;;
3185;SDS011;1604;53.700;10.252;2023-12-20T10:39:14;8.77;;;1.07;;
3185;SDS011;1604;53.700;10.252;2023-12-20T10:42:16;2.50;;;0.90;;
3185;SDS011;1604;53.700;10.252;2023-12-20T10:45:20;3.40;;;0.90;;
3185;SDS011;1604;53.700;10.252;2023-12-20T10:48:23;6.27;;;1.07;;
3185;SDS011;1604;53.700;10.252;2023-12-20T10:51:29;4.10;;;1.00;;
3185;SDS011;1604;53.700;10.252;2023-12-20T10:54:32;1.97;;;1.07;;
3185;SDS011;1604;53.700;10.252;2023-12-20T10:57:34;5.90;;;1.10;;
3185;SDS011;1604;53.700;10.252;2023-12-20T11:00:39;12.00;;;2.20;;
3185;SDS011;1604;53.700;10.252;2023-12-20T11:03:43;24.73;;;2.37;;
3185;SDS011;1604;53.700;10.252;2023-12-20T11:06:51;5.50;;;1.30;;
3185;SDS011;1604;53.700;10.252;2023-12-20T11:09:58;7.27;;;1.43;;
3185;SDS011;1604;53.700;10.252;2023-12-20T11:13:06;3.40;;;0.70;;
3185;SDS011;1604;53.700;10.252;2023-12-20T11:16:13;2.97;;;0.80;;
3185;SDS011;1604;53.700;10.252;2023-12-20T11:19:15;2.80;;;0.77;;
3185;SDS011;1604;53.700;10.252;2023-12-20T11:22:18;12.57;;;1.60;;
3185;SDS011;1604;53.700;10.252;2023-12-20T11:25:21;8.00;;;1.43;;
3185;SDS011;1604;53.700;10.252;2023-12-20T11:28:24;15.93;;;2.37;;
3185;SDS011;1604;53.700;10.252;2023-12-20T11:31:29;3.10;;;1.23;;
3185;SDS011;1604;53.700;10.252;2023-12-20T11:34:41;5.03;;;3.20;;
3185;SDS011;1604;53.700;10.252;2023-12-20T11:37:43;7.13;;;1.73;;
3185;SDS011;1604;53.700;10.252;2023-12-20T11:40:47;8.30;;;2.63;;
3185;SDS011;1604;53.700;10.252;2023-12-20T11:43:52;2.60;;;1.43;;
3185;SDS011;1604;53.700;10.252;2023-12-20T11:46:56;8.10;;;2.20;;
3185;SDS011;1604;53.700;10.252;2023-12-20T11:49:58;9.53;;;2.50;;
3185;SDS011;1604;53.700;10.252;2023-12-20T11:53:00;8.90;;;1.50;;
3185;SDS011;1604;53.700;10.252;2023-12-20T11:56:02;21.43;;;2.80;;
3185;SDS011;1604;53.700;10.252;2023-12-20T11:59:05;4.30;;;1.67;;
3185;SDS011;1604;53.700;10.252;2023-12-20T12:02:11;8.93;;;1.20;;
3185;SDS011;1604;53.700;10.252;2023-12-20T12:05:13;7.03;;;2.20;;
3185;SDS011;1604;53.700;10.252;2023-12-20T12:08:15;17.53;;;2.90;;
3185;SDS011;1604;53.700;10.252;2023-12-20T12:11:18;8.10;;;2.10;;
3185;SDS011;1604;53.700;10.252;2023-12-20T12:14:20;17.73;;;3.10;;
3185;SDS011;1604;53.700;10.252;2023-12-20T12:17:23;19.07;;;2.40;;
3185;SDS011;1604;53.700;10.252;2023-12-20T12:20:25;12.10;;;2.37;;
3185;SDS011;1604;53.700;10.252;2023-12-20T12:23:27;12.90;;;2.23;;
3185;SDS011;1604;53.700;10.252;2023-12-20T12:26:30;22.03;;;2.50;;
3185;SDS011;1604;53.700;10.252;2023-12-20T12:29:32;17.33;;;2.87;;
3185;SDS011;1604;53.700;10.252;2023-12-20T12:32:35;28.60;;;3.03;;
3185;SDS011;1604;53.700;10.252;2023-12-20T12:35:37;13.93;;;2.27;;
3185;SDS011;1604;53.700;10.252;2023-12-20T12:38:39;10.83;;;3.20;;
3185;SDS011;1604;53.700;10.252;2023-12-20T12:41:43;6.20;;;2.67;;
3185;SDS011;1604;53.700;10.252;2023-12-20T12:44:45;17.63;;;2.80;;
3185;SDS011;1604;53.700;10.252;2023-12-20T12:47:48;17.77;;;3.00;;
3185;SDS011;1604;53.700;10.252;2023-12-20T12:50:50;21.00;;;3.43;;
3185;SDS011;1604;53.700;10.252;2023-12-20T12:53:53;8.07;;;2.73;;
3185;SDS011;1604;53.700;10.252;2023-12-20T12:56:55;14.70;;;4.00;;
3185;SDS011;1604;53.700;10.252;2023-12-20T12:59:58;11.83;;;2.10;;
3185;SDS011;1604;53.700;10.252;2023-12-20T13:03:01;11.73;;;2.60;;
3185;SDS011;1604;53.700;10.252;2023-12-20T13:06:04;16.10;;;2.93;;
3185;SDS011;1604;53.700;10.252;2023-12-20T13:09:08;25.87;;;4.47;;
3185;SDS011;1604;53.700;10.252;2023-12-20T13:12:11;14.27;;;4.30;;
3185;SDS011;1604;53.700;10.252;2023-12-20T13:15:13;11.83;;;2.97;;
3185;SDS011;1604;53.700;10.252;2023-12-20T13:18:18;27.00;;;4.40;;
3185;SDS011;1604;53.700;10.252;2023-12-20T13:21:19;22.73;;;3.33;;
3185;SDS011;1604;53.700;10.252;2023-12-20T13:24:21;17.80;;;3.53;;
3185;SDS011;1604;53.700;10.252;2023-12-20T13:27:23;15.50;;;4.20;;
3185;SDS011;1604;53.700;10.252;2023-12-20T13:30:25;6.30;;;2.27;;
3185;SDS011;1604;53.700;10.252;2023-12-20T13:33:29;28.30;;;3.67;;
3185;SDS011;1604;53.700;10.252;2023-12-20T13:36:30;19.30;;;3.23;;
3185;SDS011;1604;53.700;10.252;2023-12-20T13:39:32;30.63;;;4.83;;
3185;SDS011;1604;53.700;10.252;2023-12-20T13:42:34;18.20;;;3.40;;
3185;SDS011;1604;53.700;10.252;2023-12-20T13:45:36;14.83;;;2.30;;
3185;SDS011;1604;53.700;10.252;2023-12-20T13:48:40;17.07;;;4.57;;
3185;SDS011;1604;53.700;10.252;2023-12-20T13:51:42;8.87;;;3.70;;
3185;SDS011;1604;53.700;10.252;2023-12-20T13:54:44;13.87;;;3.47;;
3185;SDS011;1604;53.700;10.252;2023-12-20T13:57:45;15.30;;;3.37;;
3185;SDS011;1604;53.700;10.252;2023-12-20T14:00:48;6.10;;;2.60;;
3185;SDS011;1604;53.700;10.252;2023-12-20T14:03:51;9.57;;;2.87;;
3185;SDS011;1604;53.700;10.252;2023-12-20T14:06:53;17.83;;;4.30;;
3185;SDS011;1604;53.700;10.252;2023-12-20T14:09:55;30.90;;;5.07;;
3185;SDS011;1604;53.700;10.252;2023-12-20T14:12:59;24.77;;;6.73;;
3185;SDS011;1604;53.700;10.252;2023-12-20T14:16:01;19.53;;;4.17;;
3185;SDS011;1604;53.700;10.252;2023-12-20T14:19:05;12.63;;;3.70;;
3185;SDS011;1604;53.700;10.252;2023-12-20T14:22:09;15.90;;;3.33;;
3185;SDS011;1604;53.700;10.252;2023-12-20T14:25:11;16.60;;;3.80;;
3185;SDS011;1604;53.700;10.252;2023-12-20T14:28:13;12.73;;;3.47;;
3185;SDS011;1604;53.700;10.252;2023-12-20T14:31:15;19.23;;;4.23;;
3185;SDS011;1604;53.700;10.252;2023-12-20T14:34:19;11.50;;;2.60;;
3185;SDS011;1604;53.700;10.252;2023-12-20T14:37:20;15.67;;;4.23;;
3185;SDS011;1604;53.700;10.252;2023-12-20T14:40:22;5.07;;;2.90;;
3185;SDS011;1604;53.700;10.252;2023-12-20T14:43:25;10.30;;;4.33;;
3185;SDS011;1604;53.700;10.252;2023-12-20T14:46:27;23.43;;;4.43;;
3185;SDS011;1604;53.700;10.252;2023-12-20T14:49:31;10.90;;;3.70;;
3185;SDS011;1604;53.700;10.252;2023-12-20T14:52:33;15.47;;;3.60;;
3185;SDS011;1604;53.700;10.252;2023-12-20T14:55:35;15.60;;;4.07;;
3185;SDS011;1604;53.700;10.252;2023-12-20T14:58:37;20.40;;;4.10;;
3185;SDS011;1604;53.700;10.252;2023-12-20T15:01:39;27.63;;;4.03;;
3185;SDS011;1604;53.700;10.252;2023-12-20T15:04:43;20.93;;;4.23;;
3185;SDS011;1604;53.700;10.252;2023-12-20T15:07:45;22.10;;;5.07;;
3185;SDS011;1604;53.700;10.252;2023-12-20T15:10:47;4.00;;;3.00;;
3185;SDS011;1604;53.700;10.252;2023-12-20T15:13:50;12.77;;;3.97;;
3185;SDS011;1604;53.700;10.252;2023-12-20T15:16:56;17.13;;;4.20;;
3185;SDS011;1604;53.700;10.252;2023-12-20T15:19:59;10.23;;;5.27;;
3185;SDS011;1604;53.700;10.252;2023-12-20T15:23:01;11.90;;;4.73;;
3185;SDS011;1604;53.700;10.252;2023-12-20T15:26:06;15.17;;;4.20;;
3185;SDS011;1604;53.700;10.252;2023-12-20T15:29:08;9.37;;;3.10;;
3185;SDS011;1604;53.700;10.252;2023-12-20T15:32:12;13.63;;;3.40;;
3185;SDS011;1604;53.700;10.252;2023-12-20T15:35:15;6.70;;;3.00;;
3185;SDS011;1604;53.700;10.252;2023-12-20T15:38:17;23.27;;;5.10;;
3185;SDS011;1604;53.700;10.252;2023-12-20T15:41:19;25.47;;;4.00;;
3185;SDS011;1604;53.700;10.252;2023-12-20T15:44:23;20.00;;;3.57;;
3185;SDS011;1604;53.700;10.252;2023-12-20T15:47:25;20.93;;;6.73;;
3185;SDS011;1604;53.700;10.252;2023-12-20T15:50:29;22.70;;;4.40;;
3185;SDS011;1604;53.700;10.252;2023-12-20T15:53:30;37.27;;;4.17;;
3185;SDS011;1604;53.700;10.252;2023-12-20T15:56:36;34.67;;;6.20;;
3185;SDS011;1604;53.700;10.252;2023-12-20T15:59:41;15.20;;;4.03;;
3185;SDS011;1604;53.700;10.252;2023-12-20T16:02:43;25.23;;;4.93;;
3185;SDS011;1604;53.700;10.252;2023-12-20T16:05:46;19.97;;;4.63;;
3185;SDS011;1604;53.700;10.252;2023-12-20T16:08:48;27.63;;;4.77;;
3185;SDS011;1604;53.700;10.252;2023-12-20T16:11:50;25.83;;;4.40;;
3185;SDS011;1604;53.700;10.252;2023-12-20T16:14:52;10.97;;;2.83;;
3185;SDS011;1604;53.700;10.252;2023-12-20T16:17:54;19.27;;;3.70;;
3185;SDS011;1604;53.700;10.252;2023-12-20T16:20:57;18.17;;;4.40;;
3185;SDS011;1604;53.700;10.252;2023-12-20T16:24:01;35.87;;;4.97;;
3185;SDS011;1604;53.700;10.252;2023-12-20T16:27:03;25.37;;;3.57;;
3185;SDS011;1604;53.700;10.252;2023-12-20T16:30:06;21.83;;;5.10;;
3185;SDS011;1604;53.700;10.252;2023-12-20T16:33:08;29.47;;;6.73;;
3185;SDS011;1604;53.700;10.252;2023-12-20T16:36:12;14.07;;;3.07;;
3185;SDS011;1604;53.700;10.252;2023-12-20T16:39:14;15.37;;;3.33;;
3185;SDS011;1604;53.700;10.252;2023-12-20T16:42:19;9.17;;;2.07;;
3185;SDS011;1604;53.700;10.252;2023-12-20T16:45:22;10.50;;;3.87;;
3185;SDS011;1604;53.700;10.252;2023-12-20T16:48:24;13.77;;;3.90;;
3185;SDS011;1604;53.700;10.252;2023-12-20T16:51:27;9.20;;;3.27;;
3185;SDS011;1604;53.700;10.252;2023-12-20T16:54:29;16.17;;;4.37;;
3185;SDS011;1604;53.700;10.252;2023-12-20T16:57:31;9.80;;;3.00;;
3185;SDS011;1604;53.700;10.252;2023-12-20T17:00:33;15.07;;;4.20;;
3185;SDS011;1604;53.700;10.252;2023-12-20T17:03:35;13.70;;;2.70;;
3185;SDS011;1604;53.700;10.252;2023-12-20T17:06:38;16.30;;;4.40;;
3185;SDS011;1604;53.700;10.252;2023-12-20T17:09:42;21.80;;;4.53;;
3185;SDS011;1604;53.700;10.252;2023-12-20T17:12:44;13.67;;;3.40;;
3185;SDS011;1604;53.700;10.252;2023-12-20T17:15:46;13.77;;;3.60;;
3185;SDS011;1604;53.700;10.252;2023-12-20T17:18:48;5.70;;;2.50;;
3185;SDS011;1604;53.700;10.252;2023-12-20T17:21:51;9.10;;;3.40;;
3185;SDS011;1604;53.700;10.252;2023-12-20T17:24:53;13.20;;;4.10;;
3185;SDS011;1604;53.700;10.252;2023-12-20T17:27:55;8.30;;;4.30;;
3185;SDS011;1604;53.700;10.252;2023-12-20T17:30:58;7.20;;;5.57;;
3185;SDS011;1604;53.700;10.252;2023-12-20T17:34:00;9.50;;;3.90;;
3185;SDS011;1604;53.700;10.252;2023-12-20T17:37:04;14.83;;;4.33;;
3185;SDS011;1604;53.700;10.252;2023-12-20T17:40:06;11.20;;;4.27;;
3185;SDS011;1604;53.700;10.252;2023-12-20T17:43:08;10.07;;;3.57;;
3185;SDS011;1604;53.700;10.252;2023-12-20T17:46:10;11.10;;;3.77;;
3185;SDS011;1604;53.700;10.252;2023-12-20T17:49:12;10.40;;;3.90;;
3185;SDS011;1604;53.700;10.252;2023-12-20T17:52:15;10.17;;;2.63;;
3185;SDS011;1604;53.700;10.252;2023-12-20T17:55:17;13.43;;;3.50;;
3185;SDS011;1604;53.700;10.252;2023-12-20T17:58:19;7.93;;;3.33;;
3185;SDS011;1604;53.700;10.252;2023-12-20T18:01:21;5.47;;;3.13;;
3185;SDS011;1604;53.700;10.252;2023-12-20T18:04:23;9.57;;;4.20;;
3185;SDS011;1604;53.700;10.252;2023-12-20T18:07:27;13.73;;;4.43;;
3185;SDS011;1604;53.700;10.252;2023-12-20T18:10:29;11.23;;;3.50;;
3185;SDS011;1604;53.700;10.252;2023-12-20T18:13:31;10.93;;;3.60;;
3185;SDS011;1604;53.700;10.252;2023-12-20T18:16:33;6.80;;;3.10;;
3185;SDS011;1604;53.700;10.252;2023-12-20T18:19:40;13.20;;;3.37;;
3185;SDS011;1604;53.700;10.252;2023-12-20T18:22:43;31.60;;;5.70;;